<?xml version="1.0" encoding="UTF-8" standalone="no" ?>
<gpx xmlns="http://www.topografix.com/GPX/1/1" xmlns:xsi="http://www.w3.org/2001/XMLSchema-instance" xsi:schemaLocation="http://www.topografix.com/GPX/1/1 http://www.topografix.com/GPX/1/1/gpx.xsd" version="1.1" creator="VisuGPX - https://www.visugpx.com">
  <metadata>
    <name>boucles beaumont</name>
    <desc><![CDATA[boucles beaumont du périgord]]></desc>
  </metadata>
  <trk>
    <name><![CDATA[BBmt09]]></name>
    <trkseg>
      <trkpt lat="44.80283" lon="0.78985">
        <ele>91</ele>
        <time>2008-12-08T11:24:12Z</time>
      </trkpt>
      <trkpt lat="44.80265" lon="0.78975">
        <ele>90</ele>
        <time>2008-12-08T11:24:20Z</time>
      </trkpt>
      <trkpt lat="44.80253" lon="0.78948">
        <ele>98</ele>
        <time>2008-12-08T11:24:24Z</time>
      </trkpt>
      <trkpt lat="44.80238" lon="0.78928">
        <ele>102</ele>
        <time>2008-12-08T11:24:27Z</time>
      </trkpt>
      <trkpt lat="44.80223" lon="0.7891">
        <ele>104</ele>
        <time>2008-12-08T11:24:30Z</time>
      </trkpt>
      <trkpt lat="44.80205" lon="0.78895">
        <ele>106</ele>
        <time>2008-12-08T11:24:33Z</time>
      </trkpt>
      <trkpt lat="44.80183" lon="0.78883">
        <ele>106</ele>
        <time>2008-12-08T11:24:36Z</time>
      </trkpt>
      <trkpt lat="44.8016" lon="0.7887">
        <ele>107</ele>
        <time>2008-12-08T11:24:39Z</time>
      </trkpt>
      <trkpt lat="44.80138" lon="0.78865">
        <ele>109</ele>
        <time>2008-12-08T11:24:42Z</time>
      </trkpt>
      <trkpt lat="44.80118" lon="0.7886">
        <ele>111</ele>
        <time>2008-12-08T11:24:45Z</time>
      </trkpt>
      <trkpt lat="44.80098" lon="0.78855">
        <ele>106</ele>
        <time>2008-12-08T11:24:58Z</time>
      </trkpt>
      <trkpt lat="44.80083" lon="0.78838">
        <ele>100</ele>
        <time>2008-12-08T11:25:02Z</time>
      </trkpt>
      <trkpt lat="44.80065" lon="0.78823">
        <ele>97</ele>
        <time>2008-12-08T11:25:05Z</time>
      </trkpt>
      <trkpt lat="44.8004" lon="0.78815">
        <ele>98</ele>
        <time>2008-12-08T11:25:08Z</time>
      </trkpt>
      <trkpt lat="44.8002" lon="0.78815">
        <ele>98</ele>
        <time>2008-12-08T11:25:10Z</time>
      </trkpt>
      <trkpt lat="44.79993" lon="0.78813">
        <ele>97</ele>
        <time>2008-12-08T11:25:13Z</time>
      </trkpt>
      <trkpt lat="44.79968" lon="0.78808">
        <ele>97</ele>
        <time>2008-12-08T11:25:16Z</time>
      </trkpt>
      <trkpt lat="44.79948" lon="0.78805">
        <ele>99</ele>
        <time>2008-12-08T11:25:18Z</time>
      </trkpt>
      <trkpt lat="44.7992" lon="0.788">
        <ele>97</ele>
        <time>2008-12-08T11:25:21Z</time>
      </trkpt>
      <trkpt lat="44.79893" lon="0.78793">
        <ele>95</ele>
        <time>2008-12-08T11:25:24Z</time>
      </trkpt>
      <trkpt lat="44.79868" lon="0.78788">
        <ele>93</ele>
        <time>2008-12-08T11:25:27Z</time>
      </trkpt>
      <trkpt lat="44.7984" lon="0.78785">
        <ele>91</ele>
        <time>2008-12-08T11:25:30Z</time>
      </trkpt>
      <trkpt lat="44.79815" lon="0.78785">
        <ele>93</ele>
        <time>2008-12-08T11:25:33Z</time>
      </trkpt>
      <trkpt lat="44.7979" lon="0.78785">
        <ele>94</ele>
        <time>2008-12-08T11:25:36Z</time>
      </trkpt>
      <trkpt lat="44.79765" lon="0.7878">
        <ele>97</ele>
        <time>2008-12-08T11:25:39Z</time>
      </trkpt>
      <trkpt lat="44.79745" lon="0.78768">
        <ele>98</ele>
        <time>2008-12-08T11:25:42Z</time>
      </trkpt>
      <trkpt lat="44.7973" lon="0.7875">
        <ele>97</ele>
        <time>2008-12-08T11:25:46Z</time>
      </trkpt>
      <trkpt lat="44.79715" lon="0.78725">
        <ele>100</ele>
        <time>2008-12-08T11:25:50Z</time>
      </trkpt>
      <trkpt lat="44.79705" lon="0.78703">
        <ele>84</ele>
        <time>2008-12-08T11:26:03Z</time>
      </trkpt>
      <trkpt lat="44.79693" lon="0.78675">
        <ele>87</ele>
        <time>2008-12-08T11:26:09Z</time>
      </trkpt>
      <trkpt lat="44.79683" lon="0.7865">
        <ele>90</ele>
        <time>2008-12-08T11:26:12Z</time>
      </trkpt>
      <trkpt lat="44.7967" lon="0.78625">
        <ele>92</ele>
        <time>2008-12-08T11:26:15Z</time>
      </trkpt>
      <trkpt lat="44.79655" lon="0.78605">
        <ele>94</ele>
        <time>2008-12-08T11:26:18Z</time>
      </trkpt>
      <trkpt lat="44.79635" lon="0.7859">
        <ele>94</ele>
        <time>2008-12-08T11:26:21Z</time>
      </trkpt>
      <trkpt lat="44.79618" lon="0.7858">
        <ele>94</ele>
        <time>2008-12-08T11:26:23Z</time>
      </trkpt>
      <trkpt lat="44.796" lon="0.78573">
        <ele>94</ele>
        <time>2008-12-08T11:26:25Z</time>
      </trkpt>
      <trkpt lat="44.79575" lon="0.78565">
        <ele>94</ele>
        <time>2008-12-08T11:26:28Z</time>
      </trkpt>
      <trkpt lat="44.79553" lon="0.78558">
        <ele>96</ele>
        <time>2008-12-08T11:26:31Z</time>
      </trkpt>
      <trkpt lat="44.7953" lon="0.78543">
        <ele>99</ele>
        <time>2008-12-08T11:26:34Z</time>
      </trkpt>
      <trkpt lat="44.79513" lon="0.7852">
        <ele>98</ele>
        <time>2008-12-08T11:26:37Z</time>
      </trkpt>
    </trkseg>
  </trk>
</gpx>